Time;durP1;ratioP1;P1;durP2;ratioP2;P2;SDS_P1;SDS_P2;PMS_P1;PMS_P2;Temp;Humidity;BMP_temperature;BMP_pressure;BME280_temperature;BME280_humidity;BME280_pressure;Samples;Min_cycle;Max_cycle;Signal;HPM_P1;HPM_P2
2023/09/12 00:00:49;;;;;;;42.83;31.27;;;20.80;99.90;;;;;;4990045;28;20660;-59
2023/09/12 00:03:20;;;;;;;38.20;30.90;;;21.00;99.90;;;;;;4989359;28;20189;-50
2023/09/12 00:05:52;;;;;;;39.60;30.20;;;20.20;99.90;;;;;;4969156;28;20304;-58
2023/09/12 00:08:20;;;;;;;44.28;31.85;;;20.40;99.90;;;;;;4988399;28;20287;-50
2023/09/12 00:10:48;;;;;;;41.83;32.20;;;;;;;;;;4987363;28;20236;-60
2023/09/12 00:13:14;;;;;;;38.75;31.23;;;20.30;99.90;;;;;;4974988;28;20925;-52
2023/09/12 00:15:43;;;;;;;41.07;33.33;;;20.50;99.90;;;;;;4987279;28;20194;-48
2023/09/12 00:18:10;;;;;;;40.27;32.53;;;20.20;99.90;;;;;;4985013;28;20189;-51
2023/09/12 00:20:40;;;;;;;41.43;33.73;;;20.50;99.90;;;;;;4973521;28;20299;-49
2023/09/12 00:23:07;;;;;;;40.87;33.77;;;20.50;99.90;;;;;;4984057;28;20182;-50
2023/09/12 00:25:35;;;;;;;46.07;37.37;;;;;;;;;;4989607;28;20240;-52
2023/09/12 00:28:02;;;;;;;44.83;36.73;;;;;;;;;;4973148;28;20656;-58
2023/09/12 00:30:31;;;;;;;54.30;39.85;;;;;;;;;;4985187;28;20194;-51
2023/09/12 00:32:58;;;;;;;50.23;37.13;;;20.10;99.90;;;;;;4984245;28;20196;-59
2023/09/12 00:35:25;;;;;;;54.50;39.60;;;19.90;99.90;;;;;;4972107;28;20197;-51
2023/09/12 00:37:54;;;;;;;57.27;39.63;;;;;;;;;;4983534;28;20197;-57
2023/09/12 00:40:21;;;;;;;54.10;36.33;;;20.00;99.90;;;;;;4986070;28;20876;-49
2023/09/12 00:42:48;;;;;;;49.80;36.67;;;20.00;99.90;;;;;;4989622;28;20201;-58
2023/09/12 00:45:14;;;;;;;46.03;35.60;;;20.00;99.90;;;;;;4977929;28;20232;-49
2023/09/12 00:47:41;;;;;;;45.77;36.43;;;19.90;99.90;;;;;;4983236;28;20212;-49
2023/09/12 00:50:10;;;;;;;42.27;33.70;;;20.00;99.90;;;;;;4964981;28;20419;-56
2023/09/12 00:52:39;;;;;;;48.67;33.33;;;20.00;99.90;;;;;;4988585;28;20676;-46
2023/09/12 00:55:08;;;;;;;41.27;31.33;;;20.00;99.90;;;;;;4983469;28;20212;-55
2023/09/12 00:57:35;;;;;;;42.13;32.13;;;20.00;99.90;;;;;;4994591;28;20267;-52
2023/09/12 01:00:10;;;;;;;38.83;30.63;;;20.00;99.90;;;;;;4975849;28;20206;-56
2023/09/12 01:02:38;;;;;;;43.70;31.77;;;20.00;99.90;;;;;;4991437;28;20200;-47
2023/09/12 01:05:07;;;;;;;39.57;29.40;;;20.00;99.90;;;;;;4969174;28;20243;-60
2023/09/12 01:07:34;;;;;;;36.70;29.03;;;20.00;99.90;;;;;;4984980;28;20271;-47
2023/09/12 01:10:01;;;;;;;37.73;28.17;;;19.90;99.90;;;;;;4988251;28;20194;-57
2023/09/12 01:12:30;;;;;;;36.33;28.13;;;19.90;99.90;;;;;;4992535;28;20197;-47
2023/09/12 01:14:57;;;;;;;34.47;28.10;;;19.90;99.90;;;;;;4977226;28;20295;-57
2023/09/12 01:17:25;;;;;;;38.80;27.10;;;20.00;99.90;;;;;;4984142;28;20897;-50
2023/09/12 01:19:52;;;;;;;34.30;26.07;;;20.00;99.90;;;;;;4986323;28;20730;-59
2023/09/12 01:22:38;;;;;;;30.70;24.90;;;19.90;99.90;;;;;;4954004;28;20232;-59
2023/09/12 01:25:53;;;;;;;27.17;24.23;;;20.00;99.90;;;;;;4984527;28;20217;-53
2023/09/12 01:28:25;;;;;;;34.57;24.97;;;20.00;99.90;;;;;;4920860;29;20288;-57
2023/09/12 01:30:53;;;;;;;34.83;25.47;;;20.00;99.90;;;;;;4914379;29;20679;-49
2023/09/12 01:33:20;;;;;;;33.97;24.87;;;20.00;99.90;;;;;;4951954;28;20221;-57
2023/09/12 01:35:47;;;;;;;30.73;25.23;;;19.90;99.90;;;;;;4989172;28;20198;-48
2023/09/12 01:38:14;;;;;;;27.83;23.07;;;20.00;99.90;;;;;;4965516;28;20212;-57
2023/09/12 01:40:47;;;;;;;31.10;22.90;;;20.00;99.90;;;;;;4981244;28;20417;-48
2023/09/12 01:43:18;;;;;;;30.43;21.97;;;19.90;99.90;;;;;;4982396;28;20256;-59
2023/09/12 01:45:48;;;;;;;29.60;23.83;;;20.00;99.90;;;;;;4981106;28;20220;-56
2023/09/12 01:48:20;;;;;;;31.63;23.30;;;19.90;99.90;;;;;;4974570;28;20224;-59
2023/09/12 01:50:48;;;;;;;28.17;22.60;;;19.90;99.90;;;;;;4997010;28;20480;-47
2023/09/12 01:53:15;;;;;;;32.17;23.17;;;19.90;99.90;;;;;;4974912;28;20255;-57
2023/09/12 01:55:44;;;;;;;32.80;25.57;;;19.90;99.90;;;;;;4986228;28;20196;-53
2023/09/12 01:58:11;;;;;;;32.10;24.63;;;19.80;99.90;;;;;;4992655;28;20311;-58
2023/09/12 02:00:39;;;;;;;32.00;26.20;;;19.80;99.90;;;;;;4981336;28;20350;-50
2023/09/12 02:03:07;;;;;;;34.00;25.53;;;19.80;99.90;;;;;;4974721;28;20194;-49
2023/09/12 02:05:34;;;;;;;31.00;24.70;;;19.70;99.90;;;;;;4979891;28;20209;-49
2023/09/12 02:08:01;;;;;;;35.10;25.07;;;19.70;99.90;;;;;;4983626;28;20197;-49
2023/09/12 02:10:29;;;;;;;33.00;25.97;;;19.70;99.90;;;;;;4965721;28;20205;-59
2023/09/12 02:12:55;;;;;;;35.53;25.67;;;19.70;99.90;;;;;;4989708;28;20209;-46
2023/09/12 02:15:22;;;;;;;33.37;24.63;;;19.70;99.90;;;;;;4991780;28;20228;-57
2023/09/12 02:17:50;;;;;;;38.70;25.00;;;19.60;99.90;;;;;;4989753;28;20263;-47
2023/09/12 02:20:19;;;;;;;28.37;23.67;;;19.60;99.90;;;;;;4976907;28;20204;-58
2023/09/12 02:22:46;;;;;;;35.00;24.60;;;19.60;99.90;;;;;;4991047;28;20294;-50
2023/09/12 02:25:13;;;;;;;33.07;24.13;;;19.60;99.90;;;;;;4966705;28;20275;-56
2023/09/12 02:27:39;;;;;;;30.27;24.87;;;19.60;99.90;;;;;;4990935;28;20189;-49
2023/09/12 02:30:07;;;;;;;38.93;25.10;;;19.70;99.90;;;;;;4993654;28;20201;-47
2023/09/12 02:32:34;;;;;;;28.57;22.73;;;19.60;99.90;;;;;;4985278;28;20271;-49
2023/09/12 02:35:02;;;;;;;32.33;25.63;;;19.60;99.90;;;;;;4975887;28;20230;-51
2023/09/12 02:37:30;;;;;;;31.57;24.70;;;19.70;99.90;;;;;;4986832;28;20192;-58
2023/09/12 02:39:57;;;;;;;34.10;25.37;;;19.70;99.90;;;;;;4968942;28;20617;-52
2023/09/12 02:42:25;;;;;;;34.70;25.17;;;19.60;99.90;;;;;;4992767;28;20211;-57
2023/09/12 02:44:53;;;;;;;30.33;22.83;;;19.70;99.90;;;;;;4990463;28;20656;-49
2023/09/12 02:47:20;;;;;;;30.97;22.60;;;19.60;99.90;;;;;;4994010;28;20240;-56
2023/09/12 02:49:46;;;;;;;28.73;21.17;;;19.70;99.90;;;;;;4998824;28;21051;-50
2023/09/12 02:52:14;;;;;;;28.23;22.20;;;19.80;99.90;;;;;;4976660;28;20201;-59
2023/09/12 02:54:42;;;;;;;34.27;23.27;;;19.80;99.90;;;;;;4961766;28;20228;-52
2023/09/12 02:57:09;;;;;;;33.60;24.70;;;19.80;99.90;;;;;;4983415;28;20197;-46
2023/09/12 02:59:36;;;;;;;34.43;24.93;;;19.80;99.90;;;;;;4984824;28;20189;-52
2023/09/12 03:02:03;;;;;;;31.30;23.40;;;19.80;99.90;;;;;;4993420;28;20229;-48
2023/09/12 03:04:31;;;;;;;29.73;23.13;;;19.70;99.90;;;;;;4996721;28;20244;-48
2023/09/12 03:06:57;;;;;;;30.40;23.27;;;19.80;99.90;;;;;;4984352;28;20213;-46
2023/09/12 03:09:25;;;;;;;31.97;22.90;;;19.70;99.90;;;;;;4985535;28;20229;-55
2023/09/12 03:11:53;;;;;;;31.53;23.87;;;19.70;99.90;;;;;;4966878;28;20213;-52
2023/09/12 03:14:20;;;;;;;29.33;23.57;;;19.70;99.90;;;;;;4989628;28;20212;-58
2023/09/12 03:16:47;;;;;;;37.07;25.43;;;19.70;99.90;;;;;;4988823;28;20259;-49
2023/09/12 03:19:13;;;;;;;32.13;25.37;;;19.70;99.90;;;;;;4995127;28;20201;-57
2023/09/12 03:21:40;;;;;;;34.17;24.30;;;19.70;99.90;;;;;;4980234;28;20411;-51
2023/09/12 03:24:07;;;;;;;32.73;23.67;;;19.70;99.90;;;;;;4994274;28;20663;-48
2023/09/12 03:26:36;;;;;;;33.03;24.13;;;19.60;99.90;;;;;;4970679;28;20212;-49
2023/09/12 03:29:05;;;;;;;30.47;21.93;;;19.70;99.90;;;;;;4997582;28;20198;-49
2023/09/12 03:31:32;;;;;;;32.10;23.90;;;19.70;99.90;;;;;;4991933;28;20185;-49
2023/09/12 03:33:58;;;;;;;30.53;23.80;;;19.70;99.90;;;;;;4973057;28;20237;-57
2023/09/12 03:36:25;;;;;;;31.77;23.17;;;19.70;99.90;;;;;;4986808;28;20842;-50
2023/09/12 03:38:52;;;;;;;36.73;24.17;;;19.70;99.90;;;;;;4978787;28;20259;-51
2023/09/12 03:41:19;;;;;;;33.13;25.30;;;19.70;99.90;;;;;;4991222;28;20664;-58
2023/09/12 03:43:46;;;;;;;33.63;25.03;;;19.70;99.90;;;;;;4973178;28;20275;-47
2023/09/12 03:46:14;;;;;;;31.73;24.57;;;19.70;99.90;;;;;;4992492;28;20311;-59
2023/09/12 03:48:41;;;;;;;35.10;25.33;;;19.70;99.90;;;;;;4989812;28;20288;-48
2023/09/12 03:51:08;;;;;;;33.30;24.70;;;19.70;99.90;;;;;;4998958;28;20435;-58
2023/09/12 03:53:35;;;;;;;30.03;24.00;;;19.70;99.90;;;;;;4976149;28;20233;-49
2023/09/12 03:56:02;;;;;;;30.37;24.17;;;19.70;99.90;;;;;;4987447;28;20300;-47
2023/09/12 03:58:29;;;;;;;34.93;25.27;;;19.70;99.90;;;;;;4965878;28;20193;-53
2023/09/12 04:00:56;;;;;;;34.93;24.43;;;19.70;99.90;;;;;;4980550;28;20205;-47
2023/09/12 04:03:24;;;;;;;36.37;26.43;;;19.60;99.90;;;;;;4984841;28;20205;-49
2023/09/12 04:05:51;;;;;;;37.90;26.17;;;19.70;99.90;;;;;;4986995;28;20293;-52
2023/09/12 04:08:18;;;;;;;35.60;25.47;;;19.60;99.90;;;;;;4977238;28;20672;-56
2023/09/12 04:10:45;;;;;;;43.37;28.17;;;19.70;99.90;;;;;;4975556;28;20626;-51
2023/09/12 04:13:12;;;;;;;34.77;25.87;;;19.70;99.90;;;;;;4976627;28;20190;-55
2023/09/12 04:15:39;;;;;;;35.80;26.77;;;19.70;99.90;;;;;;4974798;28;20502;-48
2023/09/12 04:18:06;;;;;;;36.27;27.20;;;19.60;99.90;;;;;;4986660;28;20355;-48
2023/09/12 04:20:34;;;;;;;36.70;27.87;;;19.60;99.90;;;;;;4983151;28;20316;-47
2023/09/12 04:23:02;;;;;;;37.30;27.33;;;19.60;99.90;;;;;;4968932;28;20860;-56
2023/09/12 04:25:29;;;;;;;36.63;26.13;;;19.60;99.90;;;;;;4976325;28;20206;-46
2023/09/12 04:27:56;;;;;;;40.97;27.40;;;19.60;99.90;;;;;;4986755;28;20217;-56
2023/09/12 04:30:23;;;;;;;35.87;27.90;;;19.60;99.90;;;;;;4970694;28;20240;-48
2023/09/12 04:32:50;;;;;;;40.30;28.17;;;19.60;99.90;;;;;;4987737;28;20669;-58
2023/09/12 04:35:19;;;;;;;44.33;28.57;;;19.60;99.90;;;;;;4986040;28;20212;-48
2023/09/12 04:37:47;;;;;;;39.53;28.40;;;19.60;99.90;;;;;;4987904;28;20203;-56
2023/09/12 04:40:15;;;;;;;38.73;28.50;;;19.60;99.90;;;;;;4970021;28;20208;-49
2023/09/12 04:42:42;;;;;;;39.83;28.57;;;19.60;99.90;;;;;;4984251;28;20201;-51
2023/09/12 04:45:10;;;;;;;42.47;31.13;;;19.60;99.90;;;;;;4954620;28;20213;-51
2023/09/12 04:47:37;;;;;;;42.50;28.37;;;19.60;99.90;;;;;;4994417;28;20209;-47
2023/09/12 04:50:04;;;;;;;41.20;28.90;;;19.60;99.90;;;;;;4973114;28;20233;-58
2023/09/12 04:52:31;;;;;;;38.00;29.20;;;19.60;99.90;;;;;;4978924;28;20197;-46
2023/09/12 04:54:59;;;;;;;38.73;28.53;;;19.60;99.90;;;;;;4972608;28;20640;-56
2023/09/12 04:57:28;;;;;;;39.67;28.90;;;19.60;99.90;;;;;;4970710;28;20190;-46
2023/09/12 04:59:55;;;;;;;43.17;30.07;;;19.60;99.90;;;;;;4980677;28;20758;-57
2023/09/12 05:02:21;;;;;;;44.70;32.57;;;19.60;99.90;;;;;;4977029;28;20196;-49
2023/09/12 05:04:48;;;;;;;45.20;33.30;;;19.50;99.90;;;;;;4976202;28;20237;-57
2023/09/12 05:07:15;;;;;;;46.50;33.33;;;19.50;99.90;;;;;;4971624;28;20225;-46
2023/09/12 05:09:42;;;;;;;47.63;34.10;;;19.60;99.90;;;;;;4986102;28;20200;-50
2023/09/12 05:12:10;;;;;;;44.03;30.80;;;19.50;99.90;;;;;;4964061;28;20202;-52
2023/09/12 05:14:37;;;;;;;50.13;33.70;;;19.60;99.90;;;;;;4980605;28;20285;-50
2023/09/12 05:17:04;;;;;;;48.50;33.60;;;19.50;99.90;;;;;;4961740;28;20209;-57
2023/09/12 05:19:31;;;;;;;48.60;33.23;;;19.50;99.90;;;;;;4988838;28;20284;-47
2023/09/12 05:21:58;;;;;;;46.60;34.57;;;19.50;99.90;;;;;;4972913;28;20271;-59
2023/09/12 05:24:25;;;;;;;51.27;36.67;;;19.50;99.90;;;;;;4984644;28;20229;-51
2023/09/12 05:26:52;;;;;;;54.17;36.10;;;19.50;99.90;;;;;;4977459;28;20205;-56
2023/09/12 05:29:20;;;;;;;53.77;35.47;;;19.50;99.90;;;;;;4970725;28;20457;-45
2023/09/12 05:31:47;;;;;;;54.70;35.60;;;19.50;99.90;;;;;;4983425;28;20200;-60
2023/09/12 05:34:14;;;;;;;52.93;34.80;;;19.50;99.90;;;;;;4965910;28;20217;-48
2023/09/12 05:36:41;;;;;;;53.97;37.77;;;19.50;99.90;;;;;;4977585;28;20197;-55
2023/09/12 05:39:09;;;;;;;51.70;35.93;;;19.50;99.90;;;;;;4986359;28;20212;-50
2023/09/12 05:41:35;;;;;;;54.57;36.77;;;19.50;99.90;;;;;;4988057;28;20200;-51
2023/09/12 05:44:02;;;;;;;57.97;35.70;;;19.50;99.90;;;;;;4965566;28;20213;-61
2023/09/12 05:46:31;;;;;;;54.73;34.93;;;19.50;99.90;;;;;;4983484;28;20212;-46
2023/09/12 05:48:57;;;;;;;49.30;36.53;;;19.50;99.90;;;;;;4968301;28;20201;-61
2023/09/12 05:51:24;;;;;;;54.17;36.53;;;19.50;99.90;;;;;;4992461;28;20251;-49
2023/09/12 05:53:51;;;;;;;56.43;37.73;;;19.50;99.90;;;;;;4981215;28;20233;-59
2023/09/12 05:56:20;;;;;;;51.93;34.53;;;19.50;99.90;;;;;;4993391;28;20193;-49
2023/09/12 05:58:47;;;;;;;50.93;35.33;;;19.50;99.90;;;;;;4962417;28;20207;-48
2023/09/12 06:01:14;;;;;;;57.50;37.00;;;19.30;99.90;;;;;;4978420;28;20197;-58
2023/09/12 06:03:42;;;;;;;51.73;36.33;;;19.50;99.90;;;;;;4952976;28;20746;-48
2023/09/12 06:06:09;;;;;;;53.30;36.00;;;19.50;99.90;;;;;;4986605;28;20803;-52
2023/09/12 06:08:36;;;;;;;51.50;34.90;;;19.50;99.90;;;;;;4966713;28;21026;-46
2023/09/12 06:11:03;;;;;;;54.23;35.87;;;19.50;99.90;;;;;;4976113;28;20715;-46
2023/09/12 06:13:32;;;;;;;53.03;36.20;;;19.50;99.90;;;;;;4978313;28;20248;-59
2023/09/12 06:15:59;;;;;;;58.23;36.40;;;19.60;99.90;;;;;;4977920;28;20220;-53
2023/09/12 06:18:28;;;;;;;50.47;35.97;;;19.60;99.90;;;;;;4957543;28;20205;-46
2023/09/12 06:20:56;;;;;;;53.93;36.47;;;19.60;99.90;;;;;;4985378;28;20676;-60
2023/09/12 06:23:23;;;;;;;53.27;36.10;;;19.60;99.90;;;;;;4972816;28;20224;-49
2023/09/12 06:25:50;;;;;;;52.30;36.40;;;19.60;99.90;;;;;;4984697;28;20205;-59
2023/09/12 06:28:26;;;;;;;52.70;35.67;;;19.70;99.90;;;;;;4976192;28;20801;-50
2023/09/12 06:30:52;;;;;;;54.17;36.77;;;19.70;99.90;;;;;;4972746;28;20263;-48
2023/09/12 06:33:19;;;;;;;57.60;38.27;;;19.80;99.90;;;;;;4979424;28;20263;-51
2023/09/12 06:35:49;;;;;;;56.77;36.63;;;19.80;99.90;;;;;;4965669;28;20209;-51
2023/09/12 06:38:17;;;;;;;51.87;34.77;;;19.80;99.90;;;;;;4978615;28;20409;-54
2023/09/12 06:40:44;;;;;;;54.00;36.47;;;19.80;99.90;;;;;;4983225;28;20213;-52
2023/09/12 06:43:11;;;;;;;53.43;36.30;;;19.80;99.90;;;;;;4989374;28;20875;-56
2023/09/12 06:45:38;;;;;;;55.37;36.10;;;19.80;99.90;;;;;;4974401;28;20197;-65
2023/09/12 06:48:06;;;;;;;51.00;35.10;;;19.90;99.90;;;;;;4979302;28;20299;-56
2023/09/12 06:50:33;;;;;;;49.57;34.50;;;19.90;99.90;;;;;;4957645;28;20221;-58
2023/09/12 06:52:59;;;;;;;57.77;37.03;;;19.90;99.90;;;;;;4983512;28;20435;-56
2023/09/12 06:55:29;;;;;;;51.77;35.70;;;19.90;99.90;;;;;;4982170;28;20636;-58
2023/09/12 06:57:56;;;;;;;53.93;36.50;;;19.90;99.90;;;;;;4986709;28;20202;-57
2023/09/12 07:00:24;;;;;;;55.50;36.43;;;19.90;99.90;;;;;;4976189;28;20201;-50
2023/09/12 07:02:51;;;;;;;52.03;35.17;;;19.90;99.90;;;;;;4996448;28;20204;-58
2023/09/12 07:05:18;;;;;;;53.73;36.57;;;19.90;99.90;;;;;;4967846;28;20653;-48
2023/09/12 07:07:44;;;;;;;58.90;37.03;;;19.90;99.90;;;;;;4986363;28;20599;-57
2023/09/12 07:10:11;;;;;;;54.67;35.27;;;20.00;99.90;;;;;;4980183;28;20213;-51
2023/09/12 07:12:39;;;;;;;55.73;36.97;;;20.00;99.90;;;;;;4984456;28;20334;-56
2023/09/12 07:15:07;;;;;;;47.27;33.23;;;20.00;99.90;;;;;;4979411;28;20225;-52
2023/09/12 07:17:34;;;;;;;52.47;34.93;;;20.10;99.90;;;;;;4980711;28;20219;-53
2023/09/12 07:20:01;;;;;;;50.73;35.30;;;20.10;99.90;;;;;;4973627;28;20213;-57
2023/09/12 07:22:28;;;;;;;53.37;36.03;;;20.10;99.90;;;;;;4998204;28;20288;-57
2023/09/12 07:24:55;;;;;;;49.17;32.90;;;20.10;99.90;;;;;;4971907;28;20233;-57
2023/09/12 07:27:22;;;;;;;51.13;34.20;;;20.10;99.90;;;;;;4978782;28;20291;-52
2023/09/12 07:29:50;;;;;;;49.07;34.93;;;20.10;99.90;;;;;;4972512;28;20206;-55
2023/09/12 07:32:17;;;;;;;49.17;33.87;;;20.20;99.90;;;;;;4971690;28;20324;-50
2023/09/12 07:34:48;;;;;;;51.40;34.53;;;20.20;99.90;;;;;;4979036;28;20780;-57
2023/09/12 07:37:15;;;;;;;51.23;32.20;;;20.20;99.90;;;;;;4959144;28;20600;-55
2023/09/12 07:39:41;;;;;;;47.30;32.50;;;20.20;99.90;;;;;;4979770;28;20253;-56
2023/09/12 07:42:08;;;;;;;46.40;33.43;;;20.20;99.90;;;;;;4992528;28;20244;-51
2023/09/12 07:44:35;;;;;;;48.07;31.53;;;20.20;99.90;;;;;;4971240;28;20812;-57
2023/09/12 07:47:05;;;;;;;44.93;31.03;;;20.20;99.90;;;;;;4978429;28;20316;-57
2023/09/12 07:49:32;;;;;;;44.13;32.33;;;20.20;99.90;;;;;;4975765;28;20323;-57
2023/09/12 07:51:59;;;;;;;42.70;30.70;;;20.30;99.90;;;;;;4964080;28;20217;-57
2023/09/12 07:54:26;;;;;;;42.93;31.23;;;20.30;99.90;;;;;;4976396;28;21478;-58
2023/09/12 07:56:52;;;;;;;46.60;30.40;;;20.30;99.90;;;;;;4986695;28;20206;-54
2023/09/12 07:59:19;;;;;;;48.00;30.37;;;20.40;99.90;;;;;;4976082;28;20202;-47
2023/09/12 08:01:46;;;;;;;38.07;28.73;;;20.30;99.90;;;;;;4988677;28;20286;-58
2023/09/12 08:04:15;;;;;;;44.25;30.73;;;20.30;99.90;;;;;;4967100;28;20743;-49
2023/09/12 08:06:42;;;;;;;41.25;30.70;;;20.40;99.90;;;;;;4966217;28;20216;-58
2023/09/12 08:09:10;;;;;;;39.83;30.60;;;20.40;99.90;;;;;;4985120;28;20225;-53
2023/09/12 08:11:37;;;;;;;43.42;30.33;;;20.40;99.90;;;;;;4976070;28;20216;-58
2023/09/12 08:14:04;;;;;;;41.93;30.63;;;20.40;99.90;;;;;;4979932;28;20236;-56
2023/09/12 08:16:31;;;;;;;40.40;28.95;;;20.50;99.90;;;;;;4966901;28;20276;-58
2023/09/12 08:18:58;;;;;;;39.40;29.67;;;20.60;99.90;;;;;;4976908;28;20280;-58
2023/09/12 08:21:26;;;;;;;44.42;29.27;;;20.50;99.90;;;;;;4955222;28;20223;-58
2023/09/12 08:23:53;;;;;;;39.83;29.38;;;20.50;99.90;;;;;;4992901;28;20272;-52
2023/09/12 08:26:20;;;;;;;33.72;26.17;;;20.50;99.90;;;;;;4976218;28;20221;-48
2023/09/12 08:28:47;;;;;;;37.63;28.57;;;20.50;99.90;;;;;;4985415;28;20211;-58
2023/09/12 08:31:14;;;;;;;40.70;28.30;;;20.50;99.90;;;;;;4977848;28;20276;-48
2023/09/12 08:33:41;;;;;;;34.83;27.57;;;20.50;99.90;;;;;;4983173;28;20233;-56
2023/09/12 08:36:08;;;;;;;37.05;26.70;;;20.60;99.90;;;;;;4975674;28;20639;-48
2023/09/12 08:38:36;;;;;;;30.53;24.40;;;20.60;99.90;;;;;;4973567;28;20275;-55
2023/09/12 08:41:03;;;;;;;29.43;23.27;;;20.60;99.90;;;;;;4976332;28;20248;-49
2023/09/12 08:43:30;;;;;;;33.45;24.80;;;20.70;99.90;;;;;;4982097;28;20470;-55
2023/09/12 08:45:57;;;;;;;32.97;25.07;;;20.80;99.90;;;;;;4980853;28;20201;-58
2023/09/12 08:48:25;;;;;;;34.67;26.00;;;20.80;99.90;;;;;;4976178;28;21033;-58
2023/09/12 08:50:53;;;;;;;33.03;25.00;;;20.80;99.90;;;;;;4974789;28;20193;-51
2023/09/12 08:53:22;;;;;;;31.80;24.63;;;20.90;99.90;;;;;;4958264;28;21097;-51
2023/09/12 08:55:51;;;;;;;33.63;24.58;;;21.00;99.90;;;;;;4977204;28;20208;-53
2023/09/12 08:58:19;;;;;;;31.15;22.65;;;21.00;99.90;;;;;;4978496;28;20192;-54
2023/09/12 09:00:46;;;;;;;32.85;22.63;;;21.10;99.90;;;;;;4985587;28;20222;-56
2023/09/12 09:03:14;;;;;;;29.17;22.27;;;21.20;99.90;;;;;;4971815;28;20236;-48
2023/09/12 09:05:43;;;;;;;24.48;21.02;;;21.30;99.90;;;;;;4983149;28;20640;-49
2023/09/12 09:08:11;;;;;;;26.08;22.25;;;21.40;99.90;;;;;;4966186;28;20229;-49
2023/09/12 09:10:38;;;;;;;24.58;19.90;;;21.50;99.90;;;;;;4975704;28;20281;-58
2023/09/12 09:13:06;;;;;;;22.77;19.67;;;21.60;99.90;;;;;;4984063;28;20267;-50
2023/09/12 09:15:33;;;;;;;23.90;20.05;;;21.70;99.90;;;;;;4983642;28;20208;-55
2023/09/12 09:18:05;;;;;;;25.05;17.92;;;21.80;99.90;;;;;;4981847;28;20268;-56
2023/09/12 09:20:34;;;;;;;20.23;17.13;;;21.80;99.90;;;;;;4985366;28;20201;-54
2023/09/12 09:23:04;;;;;;;21.20;19.00;;;21.80;99.90;;;;;;4954167;28;20217;-53
2023/09/12 09:25:32;;;;;;;22.15;19.80;;;21.80;99.90;;;;;;4972748;28;20291;-53
2023/09/12 09:27:59;;;;;;;21.95;18.77;;;21.80;99.90;;;;;;4967513;28;20217;-54
2023/09/12 09:30:44;;;;;;;19.83;17.48;;;22.00;99.90;;;;;;4982092;28;20579;-55
2023/09/12 09:33:12;;;;;;;20.40;15.93;;;22.10;99.90;;;;;;4987361;28;20208;-54
2023/09/12 09:35:40;;;;;;;20.38;18.15;;;22.20;99.90;;;;;;4986435;28;20212;-55
2023/09/12 09:38:08;;;;;;;21.58;18.00;;;22.20;99.90;;;;;;4955868;28;21709;-58
2023/09/12 09:40:37;;;;;;;21.58;18.10;;;;;;;;;;4982988;28;20197;-50
2023/09/12 09:43:04;;;;;;;18.58;16.67;;;22.30;99.90;;;;;;4980859;28;20204;-57
2023/09/12 09:45:32;;;;;;;16.60;14.82;;;22.40;99.90;;;;;;4982557;28;20265;-58
2023/09/12 09:48:06;;;;;;;14.35;12.95;;;22.50;99.90;;;;;;4984495;28;21019;-58
2023/09/12 09:50:35;;;;;;;14.55;12.30;;;22.50;99.90;;;;;;4978757;28;20211;-57
2023/09/12 09:53:04;;;;;;;14.32;12.30;;;22.40;99.90;;;;;;4963090;28;20209;-53
2023/09/12 09:55:31;;;;;;;12.57;11.10;;;22.40;99.90;;;;;;4982361;28;20292;-55
2023/09/12 09:57:57;;;;;;;15.23;13.20;;;22.40;99.90;;;;;;4971133;28;20271;-56
2023/09/12 10:00:25;;;;;;;16.17;13.60;;;22.40;99.90;;;;;;4982068;28;20204;-53
2023/09/12 10:02:53;;;;;;;17.48;15.07;;;22.40;99.90;;;;;;4978232;28;20216;-55
2023/09/12 10:05:22;;;;;;;16.98;15.02;;;22.40;99.90;;;;;;4966657;28;20883;-58
2023/09/12 10:07:51;;;;;;;16.65;14.82;;;22.50;99.90;;;;;;4985445;28;20247;-58
2023/09/12 10:10:19;;;;;;;16.65;14.93;;;22.40;99.90;;;;;;4963109;28;20216;-52
2023/09/12 10:12:51;;;;;;;18.25;14.60;;;22.40;99.90;;;;;;4981294;28;20279;-54
2023/09/12 10:15:20;;;;;;;15.13;13.52;;;22.40;99.90;;;;;;4978652;28;20296;-53
2023/09/12 10:17:52;;;;;;;15.70;14.05;;;22.30;99.90;;;;;;4975023;28;20201;-57
2023/09/12 10:20:25;;;;;;;17.13;15.38;;;22.40;99.90;;;;;;4972034;28;20676;-56
2023/09/12 10:22:57;;;;;;;18.73;16.13;;;22.40;99.90;;;;;;4975037;28;20213;-58
2023/09/12 10:25:25;;;;;;;17.05;15.45;;;22.40;99.90;;;;;;4960286;28;20221;-58
2023/09/12 10:27:54;;;;;;;20.70;15.85;;;22.40;99.90;;;;;;4974540;28;20489;-53
2023/09/12 10:30:22;;;;;;;16.38;14.43;;;22.50;99.90;;;;;;4978051;28;20225;-54
2023/09/12 10:32:50;;;;;;;16.20;13.93;;;22.40;99.90;;;;;;4974712;28;20202;-57
2023/09/12 10:35:18;;;;;;;18.85;16.75;;;22.50;99.90;;;;;;4979153;28;20217;-50
2023/09/12 10:37:49;;;;;;;18.98;16.60;;;22.50;99.90;;;;;;4972076;28;20484;-52
2023/09/12 10:40:18;;;;;;;17.75;15.63;;;22.40;99.90;;;;;;4968611;28;20216;-58
2023/09/12 10:42:46;;;;;;;18.58;15.15;;;22.40;99.90;;;;;;4984231;28;20200;-53
2023/09/12 10:45:13;;;;;;;17.27;15.55;;;22.50;99.90;;;;;;4976425;28;20303;-58
2023/09/12 10:47:40;;;;;;;17.27;15.48;;;22.50;99.90;;;;;;4976429;28;20204;-51
2023/09/12 10:50:08;;;;;;;18.58;14.77;;;22.60;99.90;;;;;;4970770;28;20453;-55
2023/09/12 10:52:39;;;;;;;17.00;14.63;;;22.50;99.90;;;;;;4981093;28;20205;-51
2023/09/12 10:55:09;;;;;;;17.70;15.82;;;22.50;99.90;;;;;;4982122;28;20306;-52
2023/09/12 10:57:35;;;;;;;16.52;14.88;;;22.40;99.90;;;;;;4966336;28;20316;-51
2023/09/12 11:00:13;;;;;;;20.00;16.42;;;22.40;99.90;;;;;;4978732;28;20826;-57
2023/09/12 11:02:41;;;;;;;16.60;14.30;;;22.30;99.90;;;;;;4984633;28;20280;-52
2023/09/12 11:05:38;;;;;;;19.38;15.20;;;22.20;99.90;;;;;;4984956;28;20212;-55
2023/09/12 11:08:05;;;;;;;17.73;14.82;;;22.10;99.90;;;;;;4979216;28;20455;-57
2023/09/12 11:10:33;;;;;;;19.17;14.35;;;22.10;99.90;;;;;;4985319;28;20727;-53
2023/09/12 11:13:00;;;;;;;15.30;13.82;;;22.00;99.90;;;;;;4961771;28;20213;-56
2023/09/12 11:15:29;;;;;;;16.02;14.18;;;22.00;99.90;;;;;;4983468;28;20209;-58
2023/09/12 11:18:04;;;;;;;15.23;13.40;;;22.00;99.90;;;;;;4979414;28;20390;-56
2023/09/12 11:20:52;;;;;;;14.20;12.45;;;22.00;99.90;;;;;;4980120;28;20283;-53
2023/09/12 11:23:19;;;;;;;14.40;13.00;;;21.90;99.90;;;;;;4985026;28;20197;-58
2023/09/12 11:25:47;;;;;;;14.88;13.15;;;21.90;99.90;;;;;;4980369;28;20201;-50
2023/09/12 11:28:14;;;;;;;14.55;13.07;;;21.80;99.90;;;;;;4969243;28;20436;-57
2023/09/12 11:30:57;;;;;;;16.27;14.57;;;21.80;99.90;;;;;;4978114;28;20243;-49
2023/09/12 11:33:25;;;;;;;16.35;14.75;;;21.80;99.90;;;;;;4984916;28;20260;-57
2023/09/12 11:35:54;;;;;;;15.45;13.80;;;21.80;99.90;;;;;;4970260;28;20208;-58
2023/09/12 11:38:28;;;;;;;15.15;13.52;;;21.80;99.90;;;;;;4992880;28;20181;-58
2023/09/12 11:40:56;;;;;;;15.77;13.77;;;21.80;99.90;;;;;;4978474;28;20275;-58
2023/09/12 11:43:24;;;;;;;14.13;12.73;;;21.80;99.90;;;;;;4958692;28;20703;-56
2023/09/12 11:45:52;;;;;;;14.02;12.60;;;21.80;99.90;;;;;;4982863;28;20920;-51
2023/09/12 11:48:19;;;;;;;15.85;13.77;;;21.90;99.90;;;;;;4978536;28;20213;-54
2023/09/12 11:50:51;;;;;;;14.57;13.18;;;21.90;99.90;;;;;;4977998;28;20201;-54
2023/09/12 11:53:21;;;;;;;15.75;14.07;;;21.90;99.90;;;;;;4984794;28;20197;-53
2023/09/12 11:55:51;;;;;;;19.42;17.40;;;21.90;99.90;;;;;;4976758;28;20671;-53
2023/09/12 11:58:20;;;;;;;17.63;15.93;;;21.90;99.90;;;;;;4984798;28;20202;-56
2023/09/12 12:00:49;;;;;;;18.30;15.93;;;21.80;99.90;;;;;;4962196;28;20205;-50
2023/09/12 12:03:16;;;;;;;17.23;15.50;;;21.80;99.90;;;;;;4973945;28;20201;-54
2023/09/12 12:05:43;;;;;;;17.80;16.00;;;21.90;99.90;;;;;;4984387;28;20634;-49
2023/09/12 12:08:11;;;;;;;17.08;14.60;;;21.90;99.90;;;;;;4980192;28;20196;-51
2023/09/12 12:10:39;;;;;;;20.98;17.67;;;21.90;99.90;;;;;;4990839;28;20690;-52
2023/09/12 12:13:06;;;;;;;18.35;16.10;;;21.90;99.90;;;;;;4992098;28;20198;-57
2023/09/12 12:15:34;;;;;;;18.27;16.05;;;21.90;99.90;;;;;;4966962;28;20625;-51
2023/09/12 12:18:01;;;;;;;20.73;16.98;;;21.90;99.90;;;;;;4983707;28;20251;-50
2023/09/12 12:20:30;;;;;;;18.38;16.42;;;22.00;99.90;;;;;;4977417;28;20489;-57
2023/09/12 12:22:56;;;;;;;18.33;16.35;;;22.00;99.90;;;;;;4974106;28;20471;-56
2023/09/12 12:25:24;;;;;;;20.40;18.02;;;22.00;99.90;;;;;;4984299;28;20700;-51
2023/09/12 12:27:50;;;;;;;20.10;17.95;;;21.90;99.90;;;;;;4973703;28;20209;-58
2023/09/12 12:30:20;;;;;;;21.88;19.20;;;21.90;99.90;;;;;;4965428;28;20244;-56
2023/09/12 12:32:49;;;;;;;23.00;20.08;;;21.90;99.90;;;;;;4984677;28;20524;-52